Aviation Digital Data Service (ADDS)

Output produced by TAFs form (0045 UTC 26 July 2017)
found at http://aviationweather.gov/adds/tafs/
 
KRIL 252355Z 2600/2624 26012G18KT P6SM -SHRA VCTS OVC060CB 
     TEMPO 2600/2603 VRB15G25KT 6SM -TSRA OVC050CB 
     FM260300 VRB04KT P6SM -SHRA VCTS OVC050CB 
     FM260700 VRB04KT P6SM BKN050 
     FM261800 28008KT P6SM BKN070